sensor_id;sensor_type;location;lat;lon;timestamp;pressure;altitude;pressure_sealevel;temperature;humidity
54262;BME280;40174;52.364;6.452;2023-10-09T00:01:25;101687.22;;;12.38;100.00
54262;BME280;40174;52.364;6.452;2023-10-09T00:03:52;101694.72;;;12.44;100.00
54262;BME280;40174;52.364;6.452;2023-10-09T00:06:21;101692.56;;;12.50;100.00
54262;BME280;40174;52.364;6.452;2023-10-09T00:08:57;101697.78;;;12.51;100.00
54262;BME280;40174;52.364;6.452;2023-10-09T00:11:37;101717.03;;;12.53;100.00
54262;BME280;40174;52.364;6.452;2023-10-09T00:14:08;101704.41;;;12.57;100.00
54262;BME280;40174;52.364;6.452;2023-10-09T00:16:36;101700.56;;;12.61;100.00
54262;BME280;40174;52.364;6.452;2023-10-09T00:19:09;101705.44;;;12.67;100.00
54262;BME280;40174;52.364;6.452;2023-10-09T00:21:46;101711.13;;;12.74;100.00
54262;BME280;40174;52.364;6.452;2023-10-09T00:24:13;101698.59;;;12.76;100.00
54262;BME280;40174;52.364;6.452;2023-10-09T00:26:47;101700.16;;;12.78;100.00
54262;BME280;40174;52.364;6.452;2023-10-09T00:29:16;101706.06;;;12.82;100.00
54262;BME280;40174;52.364;6.452;2023-10-09T00:31:50;101704.03;;;12.85;100.00
54262;BME280;40174;52.364;6.452;2023-10-09T00:34:22;101698.81;;;12.84;100.00
54262;BME280;40174;52.364;6.452;2023-10-09T00:36:51;101692.44;;;12.86;100.00
54262;BME280;40174;52.364;6.452;2023-10-09T00:39:20;101692.31;;;12.88;100.00
54262;BME280;40174;52.364;6.452;2023-10-09T00:42:07;101689.69;;;12.88;100.00
54262;BME280;40174;52.364;6.452;2023-10-09T00:44:38;101689.56;;;12.89;100.00
54262;BME280;40174;52.364;6.452;2023-10-09T00:47:09;101697.28;;;12.93;100.00
54262;BME280;40174;52.364;6.452;2023-10-09T00:49:49;101692.81;;;12.93;100.00
54262;BME280;40174;52.364;6.452;2023-10-09T00:52:20;101689.94;;;12.96;100.00
54262;BME280;40174;52.364;6.452;2023-10-09T00:54:57;101685.38;;;12.98;100.00
54262;BME280;40174;52.364;6.452;2023-10-09T00:57:28;101675.69;;;12.97;100.00
54262;BME280;40174;52.364;6.452;2023-10-09T00:59:59;101676.31;;;13.01;100.00
54262;BME280;40174;52.364;6.452;2023-10-09T01:02:29;101675.34;;;13.02;100.00
54262;BME280;40174;52.364;6.452;2023-10-09T01:05:03;101671.59;;;13.04;100.00
54262;BME280;40174;52.364;6.452;2023-10-09T01:07:47;101661.72;;;13.06;100.00
54262;BME280;40174;52.364;6.452;2023-10-09T01:10:14;101668.59;;;13.09;100.00
54262;BME280;40174;52.364;6.452;2023-10-09T01:12:42;101651.72;;;13.10;100.00
54262;BME280;40174;52.364;6.452;2023-10-09T01:15:13;101649.78;;;13.12;100.00
54262;BME280;40174;52.364;6.452;2023-10-09T01:18:02;101647.88;;;13.14;100.00
54262;BME280;40174;52.364;6.452;2023-10-09T01:20:30;101636.28;;;13.15;100.00
54262;BME280;40174;52.364;6.452;2023-10-09T01:23:03;101630.59;;;13.20;100.00
54262;BME280;40174;52.364;6.452;2023-10-09T01:25:33;101634.97;;;13.21;100.00
54262;BME280;40174;52.364;6.452;2023-10-09T01:28:08;101618.88;;;13.22;100.00
54262;BME280;40174;52.364;6.452;2023-10-09T01:30:34;101624.94;;;13.24;100.00
54262;BME280;40174;52.364;6.452;2023-10-09T01:33:07;101628.31;;;13.26;100.00
54262;BME280;40174;52.364;6.452;2023-10-09T01:35:48;101629.78;;;13.30;100.00
54262;BME280;40174;52.364;6.452;2023-10-09T01:38:18;101635.81;;;13.33;100.00
54262;BME280;40174;52.364;6.452;2023-10-09T01:40:56;101645.34;;;13.35;100.00
54262;BME280;40174;52.364;6.452;2023-10-09T01:43:30;101634.47;;;13.38;100.00
54262;BME280;40174;52.364;6.452;2023-10-09T01:45:59;101629.16;;;13.38;100.00
54262;BME280;40174;52.364;6.452;2023-10-09T01:48:27;101626.16;;;13.43;100.00
54262;BME280;40174;52.364;6.452;2023-10-09T01:50:54;101624.22;;;13.45;100.00
54262;BME280;40174;52.364;6.452;2023-10-09T01:53:22;101620.59;;;13.46;100.00
54262;BME280;40174;52.364;6.452;2023-10-09T01:55:54;101623.13;;;13.47;100.00
54262;BME280;40174;52.364;6.452;2023-10-09T01:58:20;101617.59;;;13.50;100.00
54262;BME280;40174;52.364;6.452;2023-10-09T02:00:52;101619.16;;;13.53;100.00
54262;BME280;40174;52.364;6.452;2023-10-09T02:03:21;101620.13;;;13.52;100.00
54262;BME280;40174;52.364;6.452;2023-10-09T02:05:50;101612.28;;;13.50;100.00
54262;BME280;40174;52.364;6.452;2023-10-09T02:08:18;101605.03;;;13.52;100.00
54262;BME280;40174;52.364;6.452;2023-10-09T02:10:48;101610.09;;;13.56;100.00
54262;BME280;40174;52.364;6.452;2023-10-09T02:13:16;101603.69;;;13.58;100.00
54262;BME280;40174;52.364;6.452;2023-10-09T02:15:43;101592.94;;;13.60;100.00
54262;BME280;40174;52.364;6.452;2023-10-09T02:18:19;101585.56;;;13.63;100.00
54262;BME280;40174;52.364;6.452;2023-10-09T02:20:53;101579.28;;;13.64;100.00
54262;BME280;40174;52.364;6.452;2023-10-09T02:23:26;101582.66;;;13.66;100.00
54262;BME280;40174;52.364;6.452;2023-10-09T02:26:05;101577.22;;;13.68;100.00
54262;BME280;40174;52.364;6.452;2023-10-09T02:28:34;101565.63;;;13.69;100.00
54262;BME280;40174;52.364;6.452;2023-10-09T02:31:09;101575.97;;;13.72;100.00
54262;BME280;40174;52.364;6.452;2023-10-09T02:33:37;101570.44;;;13.75;100.00
54262;BME280;40174;52.364;6.452;2023-10-09T02:36:04;101569.34;;;13.78;100.00
54262;BME280;40174;52.364;6.452;2023-10-09T02:38:31;101556.91;;;13.78;100.00
54262;BME280;40174;52.364;6.452;2023-10-09T02:41:00;101558.59;;;13.79;100.00
54262;BME280;40174;52.364;6.452;2023-10-09T02:43:49;101556.66;;;13.81;100.00
54262;BME280;40174;52.364;6.452;2023-10-09T02:46:18;101551.09;;;13.84;100.00
54262;BME280;40174;52.364;6.452;2023-10-09T02:48:45;101559.88;;;13.85;100.00
54262;BME280;40174;52.364;6.452;2023-10-09T02:51:18;101557.22;;;13.85;100.00
54262;BME280;40174;52.364;6.452;2023-10-09T02:54:02;101561.72;;;13.84;100.00
54262;BME280;40174;52.364;6.452;2023-10-09T02:56:43;101562.31;;;13.88;100.00
54262;BME280;40174;52.364;6.452;2023-10-09T02:59:14;101562.16;;;13.89;100.00
54262;BME280;40174;52.364;6.452;2023-10-09T03:01:41;101567.09;;;13.94;100.00
54262;BME280;40174;52.364;6.452;2023-10-09T03:04:07;101563.72;;;13.92;100.00
54262;BME280;40174;52.364;6.452;2023-10-09T03:06:36;101551.31;;;13.92;100.00
54262;BME280;40174;52.364;6.452;2023-10-09T03:09:16;101545.13;;;13.92;100.00
54262;BME280;40174;52.364;6.452;2023-10-09T03:11:44;101544.03;;;13.95;100.00
54262;BME280;40174;52.364;6.452;2023-10-09T03:14:13;101550.91;;;13.97;100.00
54262;BME280;40174;52.364;6.452;2023-10-09T03:16:41;101543.66;;;13.99;100.00
54262;BME280;40174;52.364;6.452;2023-10-09T03:19:08;101529.50;;;13.99;100.00
54262;BME280;40174;52.364;6.452;2023-10-09T03:21:36;101525.06;;;13.99;100.00
54262;BME280;40174;52.364;6.452;2023-10-09T03:24:03;101536.63;;;13.98;100.00
54262;BME280;40174;52.364;6.452;2023-10-09T03:26:32;101540.28;;;13.97;100.00
54262;BME280;40174;52.364;6.452;2023-10-09T03:28:59;101535.41;;;14.02;100.00
54262;BME280;40174;52.364;6.452;2023-10-09T03:31:28;101535.41;;;14.02;100.00
54262;BME280;40174;52.364;6.452;2023-10-09T03:33:56;101536.25;;;14.03;100.00
54262;BME280;40174;52.364;6.452;2023-10-09T03:36:23;101533.59;;;14.03;100.00
54262;BME280;40174;52.364;6.452;2023-10-09T03:38:52;101540.47;;;14.05;100.00
54262;BME280;40174;52.364;6.452;2023-10-09T03:41:20;101528.59;;;14.09;100.00
54262;BME280;40174;52.364;6.452;2023-10-09T03:43:47;101537.41;;;14.10;100.00
54262;BME280;40174;52.364;6.452;2023-10-09T03:46:14;101531.28;;;14.09;100.00
54262;BME280;40174;52.364;6.452;2023-10-09T03:48:48;101532.09;;;14.10;100.00
54262;BME280;40174;52.364;6.452;2023-10-09T03:51:14;101530.88;;;14.14;100.00
54262;BME280;40174;52.364;6.452;2023-10-09T03:53:47;101522.91;;;14.14;100.00
54262;BME280;40174;52.364;6.452;2023-10-09T03:56:14;101519.28;;;14.15;100.00
54262;BME280;40174;52.364;6.452;2023-10-09T03:58:43;101522.78;;;14.16;100.00
54262;BME280;40174;52.364;6.452;2023-10-09T04:01:11;101530.63;;;14.17;100.00
54262;BME280;40174;52.364;6.452;2023-10-09T04:03:44;101547.28;;;14.19;100.00
54262;BME280;40174;52.364;6.452;2023-10-09T04:06:12;101546.59;;;14.17;100.00
54262;BME280;40174;52.364;6.452;2023-10-09T04:08:40;101548.25;;;14.18;100.00
54262;BME280;40174;52.364;6.452;2023-10-09T04:11:13;101553.47;;;14.20;100.00
54262;BME280;40174;52.364;6.452;2023-10-09T04:13:43;101539.06;;;14.22;100.00
54262;BME280;40174;52.364;6.452;2023-10-09T04:16:11;101560.06;;;14.25;100.00
54262;BME280;40174;52.364;6.452;2023-10-09T04:19:00;101561.63;;;14.28;100.00
54262;BME280;40174;52.364;6.452;2023-10-09T04:21:33;101550.03;;;14.29;100.00
54262;BME280;40174;52.364;6.452;2023-10-09T04:24:02;101543.16;;;14.26;100.00
54262;BME280;40174;52.364;6.452;2023-10-09T04:26:48;101546.38;;;14.30;100.00
54262;BME280;40174;52.364;6.452;2023-10-09T04:29:22;101547.94;;;14.32;100.00
54262;BME280;40174;52.364;6.452;2023-10-09T04:32:05;101536.47;;;14.32;100.00
54262;BME280;40174;52.364;6.452;2023-10-09T04:34:41;101535.03;;;14.28;100.00
54262;BME280;40174;52.364;6.452;2023-10-09T04:37:15;101549.03;;;14.30;100.00
54262;BME280;40174;52.364;6.452;2023-10-09T04:40:03;101552.41;;;14.32;100.00
54262;BME280;40174;52.364;6.452;2023-10-09T04:42:37;101557.50;;;14.35;100.00
54262;BME280;40174;52.364;6.452;2023-10-09T04:45:04;101542.22;;;14.37;100.00
54262;BME280;40174;52.364;6.452;2023-10-09T04:48:00;101542.22;;;14.37;100.00
54262;BME280;40174;52.364;6.452;2023-10-09T04:50:32;101544.88;;;14.37;100.00
54262;BME280;40174;52.364;6.452;2023-10-09T04:53:20;101560.59;;;14.40;100.00
54262;BME280;40174;52.364;6.452;2023-10-09T04:55:50;101566.63;;;14.42;100.00
54262;BME280;40174;52.364;6.452;2023-10-09T04:58:29;101561.44;;;14.41;100.00
54262;BME280;40174;52.364;6.452;2023-10-09T05:01:04;101561.53;;;14.39;100.00
54262;BME280;40174;52.364;6.452;2023-10-09T05:03:41;101561.53;;;14.39;100.00
54262;BME280;40174;52.364;6.452;2023-10-09T05:06:11;101555.28;;;14.40;100.00
54262;BME280;40174;52.364;6.452;2023-10-09T05:08:59;101552.34;;;14.43;100.00
54262;BME280;40174;52.364;6.452;2023-10-09T05:11:34;101542.69;;;14.42;100.00
54262;BME280;40174;52.364;6.452;2023-10-09T05:14:19;101560.19;;;14.45;100.00
54262;BME280;40174;52.364;6.452;2023-10-09T05:16:53;101559.09;;;14.47;100.00
54262;BME280;40174;52.364;6.452;2023-10-09T05:19:27;101569.84;;;14.46;100.00
54262;BME280;40174;52.364;6.452;2023-10-09T05:22:20;101563.44;;;14.48;100.00
54262;BME280;40174;52.364;6.452;2023-10-09T05:25:03;101558.97;;;14.49;100.00
54262;BME280;40174;52.364;6.452;2023-10-09T05:27:41;101570.44;;;14.49;100.00
54262;BME280;40174;52.364;6.452;2023-10-09T05:30:11;101573.22;;;14.48;100.00
54262;BME280;40174;52.364;6.452;2023-10-09T05:32:59;101568.63;;;14.50;100.00
54262;BME280;40174;52.364;6.452;2023-10-09T05:35:30;101581.78;;;14.51;100.00
54262;BME280;40174;52.364;6.452;2023-10-09T05:38:07;101584.47;;;14.51;100.00
54262;BME280;40174;52.364;6.452;2023-10-09T05:40:42;101578.31;;;14.51;100.00
54262;BME280;40174;52.364;6.452;2023-10-09T05:43:19;101578.03;;;14.54;100.00
54262;BME280;40174;52.364;6.452;2023-10-09T05:45:59;101588.66;;;14.54;100.00
54262;BME280;40174;52.364;6.452;2023-10-09T05:48:35;101589.28;;;14.58;100.00
54262;BME280;40174;52.364;6.452;2023-10-09T05:51:21;101597.28;;;14.58;100.00
54262;BME280;40174;52.364;6.452;2023-10-09T05:54:05;101596.28;;;14.59;100.00
54262;BME280;40174;52.364;6.452;2023-10-09T05:56:50;101596.00;;;14.62;100.00
54262;BME280;40174;52.364;6.452;2023-10-09T05:59:46;101584.41;;;14.63;100.00
54262;BME280;40174;52.364;6.452;2023-10-09T06:02:37;101595.91;;;14.63;100.00
54262;BME280;40174;52.364;6.452;2023-10-09T06:05:21;101587.78;;;14.65;100.00
54262;BME280;40174;52.364;6.452;2023-10-09T06:08:05;101581.25;;;14.69;100.00
54262;BME280;40174;52.364;6.452;2023-10-09T06:10:33;101584.75;;;14.69;100.00
54262;BME280;40174;52.364;6.452;2023-10-09T06:13:07;101605.91;;;14.71;100.00
54262;BME280;40174;52.364;6.452;2023-10-09T06:15:55;101594.38;;;14.70;100.00
54262;BME280;40174;52.364;6.452;2023-10-09T06:18:40;101608.56;;;14.71;100.00
54262;BME280;40174;52.364;6.452;2023-10-09T06:21:07;101592.00;;;14.67;100.00
54262;BME280;40174;52.364;6.452;2023-10-09T06:23:35;101577.59;;;14.70;100.00
54262;BME280;40174;52.364;6.452;2023-10-09T06:26:16;101561.50;;;14.71;100.00
54262;BME280;40174;52.364;6.452;2023-10-09T06:28:53;101566.66;;;14.73;100.00
54262;BME280;40174;52.364;6.452;2023-10-09T06:31:33;101584.34;;;14.74;100.00
54262;BME280;40174;52.364;6.452;2023-10-09T06:34:22;101587.44;;;14.79;100.00
54262;BME280;40174;52.364;6.452;2023-10-09T06:36:58;101601.34;;;14.83;100.00
54262;BME280;40174;52.364;6.452;2023-10-09T06:39:30;101592.13;;;14.87;100.00
54262;BME280;40174;52.364;6.452;2023-10-09T06:42:15;101606.25;;;14.87;100.00
54262;BME280;40174;52.364;6.452;2023-10-09T06:44:59;101601.66;;;14.89;100.00
54262;BME280;40174;52.364;6.452;2023-10-09T06:47:29;101605.03;;;14.91;100.00
54262;BME280;40174;52.364;6.452;2023-10-09T06:50:02;101596.16;;;14.91;100.00
54262;BME280;40174;52.364;6.452;2023-10-09T06:52:42;101598.84;;;14.91;100.00
54262;BME280;40174;52.364;6.452;2023-10-09T06:55:44;101596.06;;;14.92;100.00
54262;BME280;40174;52.364;6.452;2023-10-09T06:58:17;101585.28;;;14.94;100.00
54262;BME280;40174;52.364;6.452;2023-10-09T07:00:53;101588.50;;;14.97;100.00
54262;BME280;40174;52.364;6.452;2023-10-09T07:03:36;101606.28;;;14.97;100.00
54262;BME280;40174;52.364;6.452;2023-10-09T07:06:18;101601.69;;;14.99;100.00
54262;BME280;40174;52.364;6.452;2023-10-09T07:08:49;101589.38;;;14.98;100.00
54262;BME280;40174;52.364;6.452;2023-10-09T07:11:38;101575.78;;;15.01;100.00
54262;BME280;40174;52.364;6.452;2023-10-09T07:14:24;101574.09;;;15.00;100.00
54262;BME280;40174;52.364;6.452;2023-10-09T07:17:10;101573.81;;;15.03;100.00
54262;BME280;40174;52.364;6.452;2023-10-09T07:19:48;101584.59;;;15.02;100.00
54262;BME280;40174;52.364;6.452;2023-10-09T07:22:35;101581.53;;;15.06;100.00
54262;BME280;40174;52.364;6.452;2023-10-09T07:25:19;101585.06;;;15.07;100.00
54262;BME280;40174;52.364;6.452;2023-10-09T07:28:07;101592.06;;;15.08;100.00
54262;BME280;40174;52.364;6.452;2023-10-09T07:30:55;101583.94;;;15.09;100.00
54262;BME280;40174;52.364;6.452;2023-10-09T07:33:24;101604.13;;;15.12;100.00
54262;BME280;40174;52.364;6.452;2023-10-09T07:36:16;101604.84;;;15.14;100.00
54262;BME280;40174;52.364;6.452;2023-10-09T07:38:56;101612.16;;;15.22;100.00
54262;BME280;40174;52.364;6.452;2023-10-09T07:41:30;101616.34;;;15.24;100.00
54262;BME280;40174;52.364;6.452;2023-10-09T07:44:04;101617.06;;;15.26;100.00
54262;BME280;40174;52.364;6.452;2023-10-09T07:46:45;101618.78;;;15.27;100.00
54262;BME280;40174;52.364;6.452;2023-10-09T07:49:19;101610.38;;;15.32;100.00
54262;BME280;40174;52.364;6.452;2023-10-09T07:51:50;101615.53;;;15.33;100.00
54262;BME280;40174;52.364;6.452;2023-10-09T07:54:18;101617.25;;;15.34;100.00
54262;BME280;40174;52.364;6.452;2023-10-09T07:56:58;101610.69;;;15.38;100.00
54262;BME280;40174;52.364;6.452;2023-10-09T07:59:34;101611.50;;;15.39;100.00
54262;BME280;40174;52.364;6.452;2023-10-09T08:02:06;101589.63;;;15.35;100.00
54262;BME280;40174;52.364;6.452;2023-10-09T08:04:40;101601.16;;;15.46;100.00
54262;BME280;40174;52.364;6.452;2023-10-09T08:07:15;101581.50;;;15.47;100.00
54262;BME280;40174;52.364;6.452;2023-10-09T08:09:51;101574.38;;;15.47;100.00
54262;BME280;40174;52.364;6.452;2023-10-09T08:12:37;101563.31;;;15.52;100.00
54262;BME280;40174;52.364;6.452;2023-10-09T08:15:21;101571.16;;;15.53;100.00
54262;BME280;40174;52.364;6.452;2023-10-09T08:17:52;101584.22;;;15.56;100.00
54262;BME280;40174;52.364;6.452;2023-10-09T08:20:22;101594.47;;;15.61;100.00
54262;BME280;40174;52.364;6.452;2023-10-09T08:22:52;101596.84;;;15.64;100.00
54262;BME280;40174;52.364;6.452;2023-10-09T08:25:21;101586.88;;;15.66;100.00
54262;BME280;40174;52.364;6.452;2023-10-09T08:27:56;101560.13;;;15.68;100.00
54262;BME280;40174;52.364;6.452;2023-10-09T08:30:40;101543.00;;;15.70;100.00
54262;BME280;40174;52.364;6.452;2023-10-09T08:33:28;101533.63;;;15.76;100.00
54262;BME280;40174;52.364;6.452;2023-10-09T08:36:08;101549.47;;;15.77;100.00
54262;BME280;40174;52.364;6.452;2023-10-09T08:38:40;101581.03;;;15.82;100.00
54262;BME280;40174;52.364;6.452;2023-10-09T08:41:10;101591.44;;;15.85;100.00
54262;BME280;40174;52.364;6.452;2023-10-09T08:46:13;101596.78;;;15.95;100.00
54262;BME280;40174;52.364;6.452;2023-10-09T08:48:44;101607.84;;;16.00;100.00
54262;BME280;40174;52.364;6.452;2023-10-09T08:51:12;101597.47;;;16.07;100.00
54262;BME280;40174;52.364;6.452;2023-10-09T08:53:40;101618.38;;;16.11;100.00
54262;BME280;40174;52.364;6.452;2023-10-09T08:56:09;101625.25;;;16.14;100.00
54262;BME280;40174;52.364;6.452;2023-10-09T08:58:36;101632.13;;;16.16;100.00
54262;BME280;40174;52.364;6.452;2023-10-09T09:01:04;101643.94;;;16.24;100.00
54262;BME280;40174;52.364;6.452;2023-10-09T09:03:38;101632.16;;;16.26;100.00
54262;BME280;40174;52.364;6.452;2023-10-09T09:06:06;101651.22;;;16.31;100.00
54262;BME280;40174;52.364;6.452;2023-10-09T09:08:34;101657.28;;;16.33;100.00
54262;BME280;40174;52.364;6.452;2023-10-09T09:11:03;101681.00;;;16.36;100.00
54262;BME280;40174;52.364;6.452;2023-10-09T09:13:39;101685.06;;;16.40;100.00
54262;BME280;40174;52.364;6.452;2023-10-09T09:16:14;101685.63;;;16.44;100.00
54262;BME280;40174;52.364;6.452;2023-10-09T09:18:51;101676.38;;;16.48;100.00
54262;BME280;40174;52.364;6.452;2023-10-09T09:21:25;101684.09;;;16.51;100.00
54262;BME280;40174;52.364;6.452;2023-10-09T09:23:55;101688.59;;;16.51;100.00
54262;BME280;40174;52.364;6.452;2023-10-09T09:26:36;101680.84;;;16.57;100.00
54262;BME280;40174;52.364;6.452;2023-10-09T09:29:06;101685.91;;;16.60;100.00
54262;BME280;40174;52.364;6.452;2023-10-09T09:31:34;101688.28;;;16.63;100.00
54262;BME280;40174;52.364;6.452;2023-10-09T09:34:05;101685.47;;;16.65;100.00
54262;BME280;40174;52.364;6.452;2023-10-09T09:36:53;101682.69;;;16.67;100.00
54262;BME280;40174;52.364;6.452;2023-10-09T09:39:25;101680.72;;;16.69;100.00
54262;BME280;40174;52.364;6.452;2023-10-09T09:41:55;101677.19;;;16.68;100.00
54262;BME280;40174;52.364;6.452;2023-10-09T09:44:32;101678.56;;;16.72;100.00
54262;BME280;40174;52.364;6.452;2023-10-09T09:47:00;101688.41;;;16.72;100.00
54262;BME280;40174;52.364;6.452;2023-10-09T09:49:32;101679.56;;;16.71;100.00
54262;BME280;40174;52.364;6.452;2023-10-09T09:52:01;101675.06;;;16.72;100.00
54262;BME280;40174;52.364;6.452;2023-10-09T09:54:37;101678.44;;;16.74;100.00
54262;BME280;40174;52.364;6.452;2023-10-09T09:57:05;101672.66;;;16.78;100.00
54262;BME280;40174;52.364;6.452;2023-10-09T09:59:39;101667.22;;;16.80;100.00
54262;BME280;40174;52.364;6.452;2023-10-09T10:02:20;101672.00;;;16.86;100.00
54262;BME280;40174;52.364;6.452;2023-10-09T10:04:53;101680.56;;;16.90;100.00
54262;BME280;40174;52.364;6.452;2023-10-09T10:07:24;101683.09;;;16.91;100.00
54262;BME280;40174;52.364;6.452;2023-10-09T10:09:52;101686.47;;;16.93;100.00
54262;BME280;40174;52.364;6.452;2023-10-09T10:12:49;101671.53;;;17.00;100.00
54262;BME280;40174;52.364;6.452;2023-10-09T10:18:31;101691.75;;;17.03;100.00
54262;BME280;40174;52.364;6.452;2023-10-09T10:21:12;101682.63;;;17.06;100.00
54262;BME280;40174;52.364;6.452;2023-10-09T10:23:42;101681.47;;;17.08;100.00
54262;BME280;40174;52.364;6.452;2023-10-09T10:26:21;101690.06;;;17.12;100.00
54262;BME280;40174;52.364;6.452;2023-10-09T10:29:13;101687.09;;;17.15;100.00
54262;BME280;40174;52.364;6.452;2023-10-09T10:31:54;101686.81;;;17.18;100.00
54262;BME280;40174;52.364;6.452;2023-10-09T10:34:22;101698.59;;;17.25;100.00
54262;BME280;40174;52.364;6.452;2023-10-09T10:36:50;101691.16;;;17.29;100.00
54262;BME280;40174;52.364;6.452;2023-10-09T10:39:25;101700.69;;;17.31;100.00
54262;BME280;40174;52.364;6.452;2023-10-09T10:42:07;101700.69;;;17.31;100.00
54262;BME280;40174;52.364;6.452;2023-10-09T10:44:41;101707.69;;;17.32;100.00
54262;BME280;40174;52.364;6.452;2023-10-09T10:47:12;101689.69;;;17.34;100.00
54262;BME280;40174;52.364;6.452;2023-10-09T10:49:51;101699.09;;;17.38;100.00
54262;BME280;40174;52.364;6.452;2023-10-09T10:52:24;101692.50;;;17.42;100.00
54262;BME280;40174;52.364;6.452;2023-10-09T10:55:08;101689.81;;;17.42;100.00
54262;BME280;40174;52.364;6.452;2023-10-09T10:57:45;101694.03;;;17.45;100.00
54262;BME280;40174;52.364;6.452;2023-10-09T11:00:27;101690.34;;;17.46;100.00
54262;BME280;40174;52.364;6.452;2023-10-09T11:03:17;101696.94;;;17.52;100.00
54262;BME280;40174;52.364;6.452;2023-10-09T11:05:49;101696.63;;;17.55;100.00
54262;BME280;40174;52.364;6.452;2023-10-09T11:08:24;101693.97;;;17.55;100.00
54262;BME280;40174;52.364;6.452;2023-10-09T11:11:10;101699.56;;;17.61;100.00
54262;BME280;40174;52.364;6.452;2023-10-09T11:13:42;101703.63;;;17.65;100.00
54262;BME280;40174;52.364;6.452;2023-10-09T11:16:22;101697.00;;;17.70;100.00
54262;BME280;40174;52.364;6.452;2023-10-09T11:19:08;101686.13;;;17.71;100.00
54262;BME280;40174;52.364;6.452;2023-10-09T11:21:50;101681.47;;;17.73;100.00
54262;BME280;40174;52.364;6.452;2023-10-09T11:24:25;101687.38;;;17.77;100.00
54262;BME280;40174;52.364;6.452;2023-10-09T11:26:51;101678.94;;;17.81;100.00
54262;BME280;40174;52.364;6.452;2023-10-09T11:29:23;101671.31;;;17.86;100.00
54262;BME280;40174;52.364;6.452;2023-10-09T11:32:02;101677.34;;;17.89;100.00
54262;BME280;40174;52.364;6.452;2023-10-09T11:34:31;101684.09;;;17.93;100.00
54262;BME280;40174;52.364;6.452;2023-10-09T11:36:58;101693.63;;;17.95;100.00
54262;BME280;40174;52.364;6.452;2023-10-09T11:39:27;101698.69;;;17.98;100.00
54262;BME280;40174;52.364;6.452;2023-10-09T11:42:02;101701.22;;;18.00;100.00
54262;BME280;40174;52.364;6.452;2023-10-09T11:44:40;101700.38;;;17.99;100.00
54262;BME280;40174;52.364;6.452;2023-10-09T11:47:07;101705.59;;;18.01;100.00
54262;BME280;40174;52.364;6.452;2023-10-09T11:49:50;101701.63;;;18.05;100.00
54262;BME280;40174;52.364;6.452;2023-10-09T11:52:23;101684.94;;;18.11;100.00
54262;BME280;40174;52.364;6.452;2023-10-09T11:55:01;101690.38;;;18.19;100.00
54262;BME280;40174;52.364;6.452;2023-10-09T11:57:28;101695.28;;;18.24;100.00
54262;BME280;40174;52.364;6.452;2023-10-09T11:59:59;101699.94;;;18.22;100.00
54262;BME280;40174;52.364;6.452;2023-10-09T12:02:27;101710.78;;;18.20;100.00
54262;BME280;40174;52.364;6.452;2023-10-09T12:04:54;101708.28;;;18.19;100.00
54262;BME280;40174;52.364;6.452;2023-10-09T12:07:24;101710.13;;;18.18;100.00
54262;BME280;40174;52.364;6.452;2023-10-09T12:09:52;101718.44;;;18.15;100.00
54262;BME280;40174;52.364;6.452;2023-10-09T12:12:22;101722.38;;;18.11;100.00
54262;BME280;40174;52.364;6.452;2023-10-09T12:14:51;101716.66;;;18.06;100.00
54262;BME280;40174;52.364;6.452;2023-10-09T12:17:19;101717.34;;;18.08;100.00
54262;BME280;40174;52.364;6.452;2023-10-09T12:19:50;101712.22;;;17.97;100.00
54262;BME280;40174;52.364;6.452;2023-10-09T12:22:16;101713.50;;;17.93;100.00
54262;BME280;40174;52.364;6.452;2023-10-09T12:24:45;101719.44;;;17.86;100.00
54262;BME280;40174;52.364;6.452;2023-10-09T12:27:12;101691.44;;;17.81;100.00
54262;BME280;40174;52.364;6.452;2023-10-09T12:29:39;101697.25;;;17.76;100.00
54262;BME280;40174;52.364;6.452;2023-10-09T12:32:10;101699.50;;;17.71;100.00
54262;BME280;40174;52.364;6.452;2023-10-09T12:34:39;101704.84;;;17.71;100.00
54262;BME280;40174;52.364;6.452;2023-10-09T12:37:07;101699.81;;;17.68;100.00
54262;BME280;40174;52.364;6.452;2023-10-09T12:39:34;101704.00;;;17.71;100.00
54262;BME280;40174;52.364;6.452;2023-10-09T12:42:06;101703.75;;;17.74;100.00
54262;BME280;40174;52.364;6.452;2023-10-09T12:44:33;101696.56;;;17.74;100.00
54262;BME280;40174;52.364;6.452;2023-10-09T12:47:04;101693.19;;;17.72;100.00
54262;BME280;40174;52.364;6.452;2023-10-09T12:49:31;101689.38;;;17.75;100.00
54262;BME280;40174;52.364;6.452;2023-10-09T12:51:59;101692.59;;;17.78;100.00
54262;BME280;40174;52.364;6.452;2023-10-09T12:54:26;101690.06;;;17.77;100.00
54262;BME280;40174;52.364;6.452;2023-10-09T12:56:53;101682.19;;;17.75;100.00
54262;BME280;40174;52.364;6.452;2023-10-09T12:59:20;101680.50;;;17.74;100.00
54262;BME280;40174;52.364;6.452;2023-10-09T13:01:50;101677.16;;;17.72;100.00
54262;BME280;40174;52.364;6.452;2023-10-09T13:04:23;101676.38;;;17.80;100.00
54262;BME280;40174;52.364;6.452;2023-10-09T13:06:57;101676.97;;;17.83;100.00
54262;BME280;40174;52.364;6.452;2023-10-09T13:09:29;101673.97;;;17.86;100.00
54262;BME280;40174;52.364;6.452;2023-10-09T13:12:01;101682.41;;;17.92;100.00
54262;BME280;40174;52.364;6.452;2023-10-09T13:14:28;101690.44;;;17.92;100.00
54262;BME280;40174;52.364;6.452;2023-10-09T13:16:54;101695.47;;;17.95;100.00
54262;BME280;40174;52.364;6.452;2023-10-09T13:19:21;101686.63;;;17.94;100.00
54262;BME280;40174;52.364;6.452;2023-10-09T13:21:49;101679.66;;;18.01;100.00